PWSweather.com
Personal Weather Stations
Station Observations
KAZPHOEN90
RayThunderhill, Phoenix, AZ

RayThunderhillPhoenix, AZ

Lat: 33.312, Lon: -112.029

Elevation: 1260

Station Type: Davis Vantage VUE

High Low Average
Temperature 78.5°F25.8°C 55.1°F12.8°C 67.9°F19.9°C
Dew Point 44.0°F6.7°C 12.7°F-10.7°C 35.0°F1.7°C
Winds 3.7 mph 6.0 kmh Calm Calm 1.0 mph SW1.6 kmh SW
Wind Gusts 8.0 mph12.9 kmh -- 2.0 mph3.2 kmh
Humidity 61% 12% 33%
Pressure 30.08 in1018.6 mb 29.92 in1013.2 mb -
Precipitation 0.00 in0.0 mm - -
Hour Temp Dew Point Humidity Winds Wind Gusts Pressure Precip Precip Rate Daily Precip Total
12:00 AM 69.1°F20.6°C 42.4°F5.8°C 38% Calm Calm -- 29.93 in1013.5 mb - 0.00 in0.0 mm 0.00 in0.0 mm
12:15 AM 67.2°F19.6°C 42.7°F5.9°C 41% 0.2 mph SW0.3 kmh SW -- 29.93 in1013.5 mb - 0.00 in0.0 mm 0.00 in0.0 mm
12:30 AM 66.8°F19.3°C 42.9°F6.1°C 42% Calm Calm -- 29.93 in1013.5 mb - 0.00 in0.0 mm 0.00 in0.0 mm
12:45 AM 65.2°F18.4°C 42.7°F5.9°C 44% Calm Calm -- 29.93 in1013.5 mb - 0.00 in0.0 mm 0.00 in0.0 mm
01:00 AM 64.0°F17.8°C 43.3°F6.3°C 47% Calm Calm -- 29.93 in1013.5 mb - 0.00 in0.0 mm 0.00 in0.0 mm
01:15 AM 62.9°F17.2°C 44.0°F6.7°C 50% Calm Calm -- 29.93 in1013.5 mb - 0.00 in0.0 mm 0.00 in0.0 mm
01:30 AM 61.9°F16.6°C 43.6°F6.4°C 51% Calm Calm -- 29.92 in1013.2 mb - 0.00 in0.0 mm 0.00 in0.0 mm
01:45 AM 60.8°F16.0°C 43.5°F6.4°C 53% Calm Calm -- 29.93 in1013.5 mb - 0.00 in0.0 mm 0.00 in0.0 mm
02:00 AM 59.9°F15.5°C 43.2°F6.2°C 54% Calm Calm -- 29.93 in1013.5 mb - 0.00 in0.0 mm 0.00 in0.0 mm
02:15 AM 59.8°F15.4°C 43.1°F6.2°C 54% Calm Calm -- 29.93 in1013.5 mb - 0.00 in0.0 mm 0.00 in0.0 mm
02:30 AM 60.5°F15.8°C 42.3°F5.7°C 51% Calm Calm -- 29.94 in1013.9 mb - 0.00 in0.0 mm 0.00 in0.0 mm
02:45 AM 61.3°F16.3°C 43.0°F6.1°C 51% Calm Calm -- 29.95 in1014.2 mb - 0.00 in0.0 mm 0.00 in0.0 mm
03:00 AM 60.8°F16.0°C 42.6°F5.9°C 51% Calm Calm -- 29.95 in1014.2 mb - 0.00 in0.0 mm 0.00 in0.0 mm
03:15 AM 59.7°F15.4°C 42.5°F5.8°C 53% Calm Calm -- 29.95 in1014.2 mb - 0.00 in0.0 mm 0.00 in0.0 mm
03:30 AM 60.1°F15.6°C 41.9°F5.5°C 51% Calm Calm -- 29.96 in1014.6 mb - 0.00 in0.0 mm 0.00 in0.0 mm
03:45 AM 59.9°F15.5°C 41.7°F5.4°C 51% Calm Calm -- 29.96 in1014.6 mb - 0.00 in0.0 mm 0.00 in0.0 mm
04:00 AM 58.8°F14.9°C 42.2°F5.7°C 54% Calm Calm -- 29.97 in1014.9 mb - 0.00 in0.0 mm 0.00 in0.0 mm
04:15 AM 58.6°F14.8°C 42.0°F5.6°C 54% Calm Calm -- 29.97 in1014.9 mb - 0.00 in0.0 mm 0.00 in0.0 mm
04:30 AM 57.5°F14.2°C 41.9°F5.5°C 56% Calm Calm -- 29.97 in1014.9 mb - 0.00 in0.0 mm 0.00 in0.0 mm
04:45 AM 56.9°F13.8°C 42.3°F5.7°C 58% Calm Calm -- 29.97 in1014.9 mb - 0.00 in0.0 mm 0.00 in0.0 mm
05:00 AM 56.7°F13.7°C 42.0°F5.6°C 58% Calm Calm -- 29.98 in1015.2 mb - 0.00 in0.0 mm 0.00 in0.0 mm
05:15 AM 55.5°F13.1°C 41.8°F5.4°C 60% Calm Calm -- 29.98 in1015.2 mb - 0.00 in0.0 mm 0.00 in0.0 mm
05:30 AM 55.1°F12.8°C 41.9°F5.5°C 61% Calm Calm -- 29.99 in1015.6 mb - 0.00 in0.0 mm 0.00 in0.0 mm
05:45 AM 55.2°F12.9°C 41.6°F5.3°C 60% Calm Calm -- 30.00 in1015.9 mb - 0.00 in0.0 mm 0.00 in0.0 mm
06:00 AM 55.5°F13.1°C 41.8°F5.4°C 60% Calm Calm -- 30.00 in1015.9 mb - 0.00 in0.0 mm 0.00 in0.0 mm
06:15 AM 56.5°F13.6°C 41.4°F5.2°C 57% Calm Calm -- 30.00 in1015.9 mb - 0.00 in0.0 mm 0.00 in0.0 mm
06:30 AM 56.8°F13.8°C 41.7°F5.4°C 57% 0.7 mph N1.1 kmh N 2.0 mph3.2 kmh 30.00 in1015.9 mb - 0.00 in0.0 mm 0.00 in0.0 mm
06:45 AM 62.8°F17.1°C 41.2°F5.1°C 45% 1.3 mph NW2.1 kmh NW 4.0 mph6.4 kmh 30.01 in1016.3 mb - 0.00 in0.0 mm 0.00 in0.0 mm
07:00 AM 64.4°F18.0°C 40.2°F4.6°C 41% 2.9 mph NNW4.7 kmh NNW 6.0 mph9.7 kmh 30.02 in1016.6 mb - 0.00 in0.0 mm 0.00 in0.0 mm
07:15 AM 64.3°F17.9°C 40.1°F4.5°C 41% 1.1 mph NNW1.8 kmh NNW 1.0 mph1.6 kmh 30.03 in1016.9 mb - 0.00 in0.0 mm 0.00 in0.0 mm
07:30 AM 64.3°F17.9°C 39.4°F4.1°C 40% 1.5 mph N2.4 kmh N 3.0 mph4.8 kmh 30.04 in1017.3 mb - 0.00 in0.0 mm 0.00 in0.0 mm
07:45 AM 64.9°F18.3°C 38.7°F3.7°C 38% 2.3 mph N3.7 kmh N 6.0 mph9.7 kmh 30.04 in1017.3 mb - 0.00 in0.0 mm 0.00 in0.0 mm
08:00 AM 65.4°F18.6°C 39.1°F3.9°C 38% Calm Calm 3.0 mph4.8 kmh 30.05 in1017.6 mb - 0.00 in0.0 mm 0.00 in0.0 mm
08:15 AM 66.5°F19.2°C 38.0°F3.3°C 35% 2.4 mph N3.9 kmh N 4.0 mph6.4 kmh 30.05 in1017.6 mb - 0.00 in0.0 mm 0.00 in0.0 mm
08:30 AM 67.2°F19.6°C 37.1°F2.8°C 33% 2.2 mph ENE3.5 kmh ENE 4.0 mph6.4 kmh 30.06 in1017.9 mb - 0.00 in0.0 mm 0.00 in0.0 mm
08:45 AM 67.7°F19.8°C 36.8°F2.7°C 32% 3.7 mph NW6.0 kmh NW 6.0 mph9.7 kmh 30.06 in1017.9 mb - 0.00 in0.0 mm 0.00 in0.0 mm
09:00 AM 68.4°F20.2°C 36.5°F2.5°C 31% 2.5 mph NW4.0 kmh NW 4.0 mph6.4 kmh 30.07 in1018.3 mb - 0.00 in0.0 mm 0.00 in0.0 mm
09:15 AM 68.7°F20.4°C 36.0°F2.2°C 30% 3.5 mph NE5.6 kmh NE 8.0 mph12.9 kmh 30.07 in1018.3 mb - 0.00 in0.0 mm 0.00 in0.0 mm
09:30 AM 68.9°F20.5°C 36.2°F2.3°C 30% 2.6 mph E4.2 kmh E 5.0 mph8.0 kmh 30.07 in1018.3 mb - 0.00 in0.0 mm 0.00 in0.0 mm
09:45 AM 69.5°F20.8°C 37.5°F3.1°C 31% 0.3 mph N0.5 kmh N 3.0 mph4.8 kmh 30.08 in1018.6 mb - 0.00 in0.0 mm 0.00 in0.0 mm
10:00 AM 69.4°F20.8°C 38.3°F3.5°C 32% 3.2 mph ESE5.1 kmh ESE 5.0 mph8.0 kmh 30.08 in1018.6 mb - 0.00 in0.0 mm 0.00 in0.0 mm
10:15 AM 69.7°F20.9°C 36.9°F2.7°C 30% 2.1 mph NNW3.4 kmh NNW 4.0 mph6.4 kmh 30.08 in1018.6 mb - 0.00 in0.0 mm 0.00 in0.0 mm
10:30 AM 70.9°F21.6°C 37.9°F3.3°C 30% 1.9 mph ENE3.1 kmh ENE 4.0 mph6.4 kmh 30.08 in1018.6 mb - 0.00 in0.0 mm 0.00 in0.0 mm
10:45 AM 71.6°F22.0°C 35.8°F2.1°C 27% 2.1 mph NNW3.4 kmh NNW 4.0 mph6.4 kmh 30.08 in1018.6 mb - 0.00 in0.0 mm 0.00 in0.0 mm
11:00 AM 72.7°F22.6°C 36.8°F2.7°C 27% 1.7 mph NE2.7 kmh NE 5.0 mph8.0 kmh 30.08 in1018.6 mb - 0.00 in0.0 mm 0.00 in0.0 mm
11:15 AM 73.1°F22.8°C 35.2°F1.8°C 25% 1.8 mph NNW2.9 kmh NNW 4.0 mph6.4 kmh 30.08 in1018.6 mb - 0.00 in0.0 mm 0.00 in0.0 mm
11:30 AM 73.7°F23.2°C 36.7°F2.6°C 26% 0.5 mph WNW0.8 kmh WNW 2.0 mph3.2 kmh 30.07 in1018.3 mb - 0.00 in0.0 mm 0.00 in0.0 mm
11:45 AM 73.9°F23.3°C 34.8°F1.6°C 24% 1.7 mph N2.7 kmh N 4.0 mph6.4 kmh 30.06 in1017.9 mb - 0.00 in0.0 mm 0.00 in0.0 mm
12:00 PM 74.8°F23.8°C 35.6°F2.0°C 24% 1.1 mph NNE1.8 kmh NNE 2.0 mph3.2 kmh 30.06 in1017.9 mb - 0.00 in0.0 mm 0.00 in0.0 mm
12:15 PM 75.6°F24.2°C 35.2°F1.8°C 23% 2.3 mph NE3.7 kmh NE 6.0 mph9.7 kmh 30.05 in1017.6 mb - 0.00 in0.0 mm 0.00 in0.0 mm
12:30 PM 76.4°F24.7°C 34.7°F1.5°C 22% 0.7 mph NNW1.1 kmh NNW 4.0 mph6.4 kmh 30.04 in1017.3 mb - 0.00 in0.0 mm 0.00 in0.0 mm
12:45 PM 77.0°F25.0°C 35.3°F1.8°C 22% 0.2 mph NE0.3 kmh NE 1.0 mph1.6 kmh 30.03 in1016.9 mb - 0.00 in0.0 mm 0.00 in0.0 mm
01:00 PM 77.6°F25.3°C 35.8°F2.1°C 22% 0.3 mph ENE0.5 kmh ENE 1.0 mph1.6 kmh 30.02 in1016.6 mb - 0.00 in0.0 mm 0.00 in0.0 mm
01:15 PM 78.5°F25.8°C 34.1°F1.2°C 20% Calm Calm -- 30.02 in1016.6 mb - 0.00 in0.0 mm 0.00 in0.0 mm
01:30 PM 78.5°F25.8°C 35.3°F1.8°C 21% 0.4 mph NNW0.6 kmh NNW 2.0 mph3.2 kmh 30.01 in1016.3 mb - 0.00 in0.0 mm 0.00 in0.0 mm
01:45 PM 78.4°F25.8°C 36.4°F2.4°C 22% 1.2 mph NNW1.9 kmh NNW 3.0 mph4.8 kmh 30.00 in1015.9 mb - 0.00 in0.0 mm 0.00 in0.0 mm
02:00 PM 78.2°F25.7°C 35.0°F1.7°C 21% 1.1 mph NW1.8 kmh NW 2.0 mph3.2 kmh 30.00 in1015.9 mb - 0.00 in0.0 mm 0.00 in0.0 mm
02:15 PM 77.6°F25.3°C 35.7°F2.1°C 22% 1.3 mph NW2.1 kmh NW 2.0 mph3.2 kmh 30.00 in1015.9 mb - 0.00 in0.0 mm 0.00 in0.0 mm
02:30 PM 77.5°F25.3°C 34.5°F1.4°C 21% 2.7 mph NNW4.3 kmh NNW 4.0 mph6.4 kmh 29.99 in1015.6 mb - 0.00 in0.0 mm 0.00 in0.0 mm
02:45 PM 77.2°F25.1°C 34.2°F1.2°C 21% 1.1 mph NW1.8 kmh NW 3.0 mph4.8 kmh 29.99 in1015.6 mb - 0.00 in0.0 mm 0.00 in0.0 mm
03:00 PM 77.7°F25.4°C 34.6°F1.4°C 21% 0.4 mph WNW0.6 kmh WNW 1.0 mph1.6 kmh 29.98 in1015.2 mb - 0.00 in0.0 mm 0.00 in0.0 mm
03:15 PM 77.4°F25.2°C 33.2°F0.7°C 20% 0.7 mph W1.1 kmh W 1.0 mph1.6 kmh 29.98 in1015.2 mb - 0.00 in0.0 mm 0.00 in0.0 mm
03:30 PM 78.0°F25.6°C 33.6°F0.9°C 20% 0.4 mph ESE0.6 kmh ESE 3.0 mph4.8 kmh 29.97 in1014.9 mb - 0.00 in0.0 mm 0.00 in0.0 mm
03:45 PM 77.9°F25.5°C 32.3°F0.2°C 19% 0.6 mph NNW1.0 kmh NNW 1.0 mph1.6 kmh 29.97 in1014.9 mb - 0.00 in0.0 mm 0.00 in0.0 mm
04:00 PM 78.0°F25.6°C 31.0°F-0.6°C 18% 1.5 mph NW2.4 kmh NW 4.0 mph6.4 kmh 29.96 in1014.6 mb - 0.00 in0.0 mm 0.00 in0.0 mm
04:15 PM 77.7°F25.4°C 32.1°F0.1°C 19% Calm Calm 1.0 mph1.6 kmh 29.97 in1014.9 mb - 0.00 in0.0 mm 0.00 in0.0 mm
04:30 PM 77.3°F25.2°C 31.8°F-0.1°C 19% Calm Calm -- 29.96 in1014.6 mb - 0.00 in0.0 mm 0.00 in0.0 mm
04:45 PM 77.3°F25.2°C 31.8°F-0.1°C 19% Calm Calm -- 29.96 in1014.6 mb - 0.00 in0.0 mm 0.00 in0.0 mm
05:00 PM 76.9°F24.9°C 31.5°F-0.3°C 19% Calm Calm -- 29.96 in1014.6 mb - 0.00 in0.0 mm 0.00 in0.0 mm
05:15 PM 76.0°F24.4°C 32.0°F0.0°C 20% Calm Calm -- 29.96 in1014.6 mb - 0.00 in0.0 mm 0.00 in0.0 mm
05:30 PM 73.3°F22.9°C 31.0°F-0.6°C 21% Calm Calm -- 29.96 in1014.6 mb - 0.00 in0.0 mm 0.00 in0.0 mm
05:45 PM 71.3°F21.8°C 31.6°F-0.2°C 23% Calm Calm -- 29.96 in1014.6 mb - 0.00 in0.0 mm 0.00 in0.0 mm
06:00 PM 68.9°F20.5°C 32.6°F0.3°C 26% Calm Calm -- 29.97 in1014.9 mb - 0.00 in0.0 mm 0.00 in0.0 mm
06:15 PM 67.0°F19.4°C 32.8°F0.4°C 28% Calm Calm -- 29.97 in1014.9 mb - 0.00 in0.0 mm 0.00 in0.0 mm
06:30 PM 65.9°F18.8°C 32.7°F0.4°C 29% Calm Calm -- 29.97 in1014.9 mb - 0.00 in0.0 mm 0.00 in0.0 mm
06:45 PM 65.5°F18.6°C 33.2°F0.7°C 30% Calm Calm -- 29.97 in1014.9 mb - 0.00 in0.0 mm 0.00 in0.0 mm
07:00 PM 64.4°F18.0°C 33.1°F0.6°C 31% Calm Calm -- 29.97 in1014.9 mb - 0.00 in0.0 mm 0.00 in0.0 mm
07:15 PM 63.4°F17.4°C 33.0°F0.6°C 32% Calm Calm -- 29.97 in1014.9 mb - 0.00 in0.0 mm 0.00 in0.0 mm
07:30 PM 62.6°F17.0°C 32.3°F0.2°C 32% Calm Calm -- 29.98 in1015.2 mb - 0.00 in0.0 mm 0.00 in0.0 mm
07:45 PM 62.6°F17.0°C 33.1°F0.6°C 33% Calm Calm -- 29.98 in1015.2 mb - 0.00 in0.0 mm 0.00 in0.0 mm
08:00 PM 62.0°F16.7°C 31.8°F-0.1°C 32% Calm Calm -- 29.98 in1015.2 mb - 0.00 in0.0 mm 0.00 in0.0 mm
08:15 PM 62.7°F17.1°C 30.0°F-1.1°C 29% Calm Calm -- 29.99 in1015.6 mb - 0.00 in0.0 mm 0.00 in0.0 mm
08:30 PM 67.7°F19.8°C 27.5°F-2.5°C 22% 0.3 mph NW0.5 kmh NW 2.0 mph3.2 kmh 29.99 in1015.6 mb - 0.00 in0.0 mm 0.00 in0.0 mm
08:45 PM 68.9°F20.5°C 26.2°F-3.2°C 20% 0.1 mph NW0.2 kmh NW 1.0 mph1.6 kmh 29.99 in1015.6 mb - 0.00 in0.0 mm 0.00 in0.0 mm
09:00 PM 70.0°F21.1°C 25.8°F-3.4°C 19% 0.6 mph NW1.0 kmh NW 1.0 mph1.6 kmh 29.99 in1015.6 mb - 0.00 in0.0 mm 0.00 in0.0 mm
09:15 PM 70.1°F21.2°C 25.9°F-3.4°C 19% 0.9 mph W1.4 kmh W 2.0 mph3.2 kmh 29.99 in1015.6 mb - 0.00 in0.0 mm 0.00 in0.0 mm
09:30 PM 69.6°F20.9°C 25.5°F-3.6°C 19% 1.4 mph NW2.3 kmh NW 3.0 mph4.8 kmh 29.99 in1015.6 mb - 0.00 in0.0 mm 0.00 in0.0 mm
09:45 PM 69.9°F21.1°C 24.4°F-4.2°C 18% 2.4 mph NW3.9 kmh NW 3.0 mph4.8 kmh 29.99 in1015.6 mb - 0.00 in0.0 mm 0.00 in0.0 mm
10:00 PM 70.1°F21.2°C 23.2°F-4.9°C 17% 2.8 mph NW4.5 kmh NW 6.0 mph9.7 kmh 29.99 in1015.6 mb - 0.00 in0.0 mm 0.00 in0.0 mm
10:15 PM 69.9°F21.1°C 21.6°F-5.8°C 16% 1.4 mph NW2.3 kmh NW 4.0 mph6.4 kmh 30.00 in1015.9 mb - 0.00 in0.0 mm 0.00 in0.0 mm
10:30 PM 68.7°F20.4°C 20.7°F-6.3°C 16% 0.6 mph NW1.0 kmh NW 1.0 mph1.6 kmh 30.00 in1015.9 mb - 0.00 in0.0 mm 0.00 in0.0 mm
10:45 PM 68.2°F20.1°C 18.7°F-7.4°C 15% 2.6 mph N4.2 kmh N 3.0 mph4.8 kmh 30.00 in1015.9 mb - 0.00 in0.0 mm 0.00 in0.0 mm
11:00 PM 67.8°F19.9°C 16.8°F-8.4°C 14% 0.5 mph NNW0.8 kmh NNW 1.0 mph1.6 kmh 30.01 in1016.3 mb - 0.00 in0.0 mm 0.00 in0.0 mm
11:15 PM 67.7°F19.8°C 13.2°F-10.4°C 12% 0.1 mph N0.2 kmh N 1.0 mph1.6 kmh 30.01 in1016.3 mb - 0.00 in0.0 mm 0.00 in0.0 mm
11:30 PM 67.1°F19.5°C 12.7°F-10.7°C 12% 2.1 mph N3.4 kmh N 4.0 mph6.4 kmh 30.01 in1016.3 mb - 0.00 in0.0 mm 0.00 in0.0 mm
11:45 PM 66.3°F19.1°C 13.9°F-10.1°C 13% 1.3 mph NNW2.1 kmh NNW 3.0 mph4.8 kmh 30.00 in1015.9 mb - 0.00 in0.0 mm 0.00 in0.0 mm